Detall de PIREP

Printer-friendly versionPDF version

[2011/05/07 16:43:00]
Flight IATA:CT1005
Pilot Number:042
Company ICAO:CAT
Aircraft Type:B744/E
PAX:300
Departing Airport: EPWA
Destination Airport: LMML
Alternate Airport:HLLT
Online: VATSIM
Route:EVINA UN744 TUSIN UM984 PUBEG UM725 SOR UM742 PAL UL12 GZO
Flight Level:F350
No Slew and time accel
No pause
Crash detect
Detect pilot in Cockpit between each 30 and 45 minutes
16:43 Zero fuel Weight: 466688 Lbs, Fuel Weight: 292835 Lbs
16:43 VATSIM:EPWA 071630Z 02015KT 350V050 9999 -RA FEW013 BKN026 10/08 Q1024 NOSIG
16:43 VATSIM:LMML 071615Z 18005KT 140V230 9999 FEW030 18/10 Q1022 NOSIG
16:43 VOICE CATALONIAN/EU TOUR
16:53 Parking Brakes off
17:01 Take-off
17:01 Take off Weight: 754797 Lbs
17:01 Wind: 146 @ 015 Knots Heading: 150
17:01 POS N52 09 36 E020 58 19
17:01 Gear Up: 217 Knots
17:01 Flaps:4 at 217 Knots
17:01 Flaps:3 at 216 Knots
17:01 Flaps:2 at 193 Knots
17:02 Flaps:1 at 239 Knots
17:03 Flaps:0 at 252 Knots
17:16 Wind:177@037 Knots Heading: 213 Ground Speed: 473 Knots Altitude 30465 ft
17:19 TOC
17:19 Fuel Weight: 273462 Lb
17:23 TOD
17:23 Fuel Weight: 271811 Lb
17:31 Wind:335@055 Knots Heading: 238 Ground Speed: 496 Knots Altitude 33238 ft
17:46 Wind:322@038 Knots Heading: 198 Ground Speed: 513 Knots Altitude 33234 ft
18:01 Wind:318@038 Knots Heading: 183 Ground Speed: 517 Knots Altitude 33172 ft
18:16 Wind:318@030 Knots Heading: 182 Ground Speed: 510 Knots Altitude 33169 ft
18:31 Wind:316@031 Knots Heading: 209 Ground Speed: 492 Knots Altitude 33267 ft
18:46 Wind:301@044 Knots Heading: 204 Ground Speed: 494 Knots Altitude 33257 ft
19:01 Wind:296@045 Knots Heading: 160 Ground Speed: 520 Knots Altitude 33228 ft
19:16 Wind:312@018 Knots Heading: 158 Ground Speed: 385 Knots Altitude 12178 ft
19:20 Flaps:1 at 231 Knots
19:21 Flaps:2 at 225 Knots
19:25 Flaps:3 at 209 Knots
19:29 Flaps:4 at 180 Knots
19:29 Gear Down: 179 Knots
19:30 Flaps:5 at 168 Knots
19:30 Flaps:6 at 166 Knots
19:31 Wind:153@002 Knots Heading: 314 Ground Speed: 167 Knots Altitude 1896 ft
19:32 TouchDown:Rate -140 ft/min Speed: 159 Knots
19:33 VATSIM:LMML 071915Z VRB02KT CAVOK 15/10 Q1022 NOSIG
19:33 Land
19:33 Wind:169@002 Knots
19:33 Heading: 314
19:33 Flight Duration: 02:32
19:33 Landing Weight: 684269 Lbs
19:33 POS N35 50 47 E014 29 34
19:35 Parking brakes on
19:35 Block to Block Duration: 02:42
19:35 Final Fuel: 219314 Lbls
19:35 Spent Fuel: 73520 Lbls
19:35 Flight Length: 1094 NM
19:35 TOD Land Length: 942 NM

Exportar CSV

Powered by Drupal - Modified by Danger4k